createdAt,value
2022-08-20T00:00:19.426Z,21.68
2022-08-20T00:03:27.622Z,21.56
2022-08-20T00:06:31.835Z,21.50
2022-08-20T00:09:36.761Z,21.46
2022-08-20T00:12:45.216Z,21.46
2022-08-20T00:15:48.560Z,21.37
2022-08-20T00:18:51.606Z,21.34
2022-08-20T00:21:57.974Z,21.32
2022-08-20T00:25:01.127Z,21.25
2022-08-20T00:28:06.923Z,21.17
2022-08-20T00:31:11.958Z,21.14
2022-08-20T00:34:14.662Z,21.11
2022-08-20T00:37:18.901Z,21.16
2022-08-20T00:40:24.151Z,21.33
2022-08-20T00:43:36.032Z,21.41
2022-08-20T00:46:39.123Z,21.47
2022-08-20T00:49:41.590Z,21.41
2022-08-20T00:52:49.928Z,21.36
2022-08-20T00:55:52.984Z,21.41
2022-08-20T00:58:56.039Z,21.49
2022-08-20T01:01:59.711Z,21.54
2022-08-20T01:05:02.885Z,21.51
2022-08-20T01:08:06.681Z,21.61
2022-08-20T01:11:12.496Z,21.58
2022-08-20T01:14:27.772Z,21.62
2022-08-20T01:17:34.411Z,21.62
2022-08-20T01:20:40.098Z,21.61
2022-08-20T01:23:52.612Z,21.59
2022-08-20T01:26:56.922Z,21.55
2022-08-20T01:30:01.118Z,21.56
2022-08-20T01:33:08.855Z,21.58
2022-08-20T01:36:12.583Z,21.66
2022-08-20T01:39:19.216Z,21.69
2022-08-20T01:42:26.944Z,21.73
2022-08-20T01:45:31.023Z,21.82
2022-08-20T01:48:33.940Z,21.81
2022-08-20T01:51:36.529Z,21.77
2022-08-20T01:54:39.218Z,21.77
2022-08-20T01:57:43.221Z,21.71
2022-08-20T02:00:45.852Z,21.69
2022-08-20T02:03:48.758Z,21.67
2022-08-20T02:06:57.338Z,21.59
2022-08-20T02:10:00.421Z,21.64
2022-08-20T02:13:06.217Z,21.60
2022-08-20T02:16:09.040Z,21.58
2022-08-20T02:19:15.459Z,21.50
2022-08-20T02:22:22.801Z,21.49
2022-08-20T02:25:30.636Z,21.44
2022-08-20T02:28:35.022Z,21.33
2022-08-20T02:31:38.388Z,21.24
2022-08-20T02:35:02.290Z,21.18
2022-08-20T02:38:05.279Z,21.20
2022-08-20T02:41:08.562Z,21.16
2022-08-20T02:44:12.659Z,21.19
2022-08-20T02:47:15.350Z,21.09
2022-08-20T02:50:21.058Z,21.02
2022-08-20T02:53:24.612Z,21.00
2022-08-20T02:56:27.358Z,21.00
2022-08-20T02:59:31.513Z,21.00
2022-08-20T03:02:34.335Z,20.94
2022-08-20T03:05:38.742Z,20.88
2022-08-20T03:08:42.172Z,20.83
2022-08-20T03:11:45.441Z,20.75
2022-08-20T03:14:49.399Z,20.69
2022-08-20T03:17:52.385Z,20.91
2022-08-20T03:20:55.243Z,20.89
2022-08-20T03:23:58.549Z,20.82
2022-08-20T03:27:01.284Z,20.76
2022-08-20T03:30:07.006Z,20.78
2022-08-20T03:33:10.284Z,20.72
2022-08-20T03:36:12.846Z,20.68
2022-08-20T03:39:22.052Z,20.80
2022-08-20T03:42:24.852Z,21.02
2022-08-20T03:45:29.824Z,21.03
2022-08-20T03:48:32.852Z,21.01
2022-08-20T03:51:57.611Z,21.11
2022-08-20T03:54:58.200Z,21.15
2022-08-20T03:58:03.208Z,21.15
2022-08-20T04:01:36.718Z,21.12
2022-08-20T04:04:30.884Z,21.19
2022-08-20T04:07:33.895Z,21.21
2022-08-20T04:10:37.390Z,21.29
2022-08-20T04:13:42.657Z,21.19
2022-08-20T04:16:47.591Z,21.26
2022-08-20T04:19:51.949Z,21.26
2022-08-20T04:22:59.257Z,21.26
2022-08-20T04:26:02.399Z,21.30
2022-08-20T04:29:05.297Z,21.28
2022-08-20T04:32:09.653Z,21.25
2022-08-20T04:35:14.582Z,21.26
2022-08-20T04:38:19.484Z,21.25
2022-08-20T04:41:24.189Z,21.21
2022-08-20T04:44:27.560Z,21.02
2022-08-20T04:47:34.675Z,20.83
2022-08-20T04:50:39.462Z,20.28
2022-08-20T04:53:42.690Z,19.91
2022-08-20T04:56:45.502Z,19.76
2022-08-20T04:59:48.119Z,19.80
2022-08-20T05:02:52.114Z,19.96
2022-08-20T05:05:54.992Z,20.07
2022-08-20T05:08:59.252Z,20.20
2022-08-20T05:12:01.826Z,20.27
2022-08-20T05:15:05.325Z,20.35
2022-08-20T05:18:10.222Z,20.27
2022-08-20T05:21:13.005Z,20.17
2022-08-20T05:24:18.360Z,20.04
2022-08-20T05:27:25.019Z,19.98
2022-08-20T05:30:33.339Z,20.07
2022-08-20T05:33:39.517Z,20.15
2022-08-20T05:36:44.205Z,20.23
2022-08-20T05:39:46.843Z,20.33
2022-08-20T05:42:49.693Z,20.43
2022-08-20T05:45:56.566Z,20.48
2022-08-20T05:49:01.807Z,20.58
2022-08-20T05:52:05.369Z,20.68
2022-08-20T05:55:09.965Z,20.81
2022-08-20T05:58:18.544Z,20.99
2022-08-20T06:01:21.341Z,21.22
2022-08-20T06:04:24.859Z,21.56
2022-08-20T06:07:27.823Z,21.88
2022-08-20T06:10:30.378Z,22.20
2022-08-20T06:13:32.979Z,22.53
2022-08-20T06:16:37.407Z,22.86
2022-08-20T06:19:44.198Z,23.06
2022-08-20T06:22:47.354Z,23.14
2022-08-20T06:25:50.835Z,23.08
2022-08-20T06:28:54.263Z,23.23
2022-08-20T06:31:56.991Z,23.13
2022-08-20T06:35:02.440Z,23.04
2022-08-20T06:38:06.879Z,22.94
2022-08-20T06:41:09.327Z,23.09
2022-08-20T06:44:12.196Z,23.19
2022-08-20T06:47:15.109Z,23.26
2022-08-20T06:50:22.943Z,23.16
2022-08-20T06:53:25.663Z,23.25
2022-08-20T06:56:28.312Z,23.25
2022-08-20T06:59:31.180Z,23.27
2022-08-20T07:02:34.096Z,23.60
2022-08-20T07:05:38.556Z,23.78
2022-08-20T07:08:41.641Z,23.76
2022-08-20T07:11:44.155Z,23.41
2022-08-20T07:14:46.805Z,23.26
2022-08-20T07:17:51.697Z,22.96
2022-08-20T07:20:56.877Z,22.99
2022-08-20T07:23:59.505Z,23.16
2022-08-20T07:27:02.201Z,23.38
2022-08-20T07:30:25.542Z,23.76
2022-08-20T07:33:28.745Z,24.22
2022-08-20T07:36:33.844Z,24.50
2022-08-20T07:39:36.678Z,24.82
2022-08-20T07:42:40.698Z,25.24
2022-08-20T07:45:45.209Z,25.20
2022-08-20T07:48:52.836Z,25.18
2022-08-20T07:51:56.754Z,25.33
2022-08-20T07:54:59.450Z,25.87
2022-08-20T07:58:10.138Z,26.13
2022-08-20T08:01:12.939Z,26.50
2022-08-20T08:04:16.008Z,26.55
2022-08-20T08:07:20.240Z,26.90
2022-08-20T08:10:24.352Z,27.01
2022-08-20T08:13:28.122Z,27.22
2022-08-20T08:16:32.582Z,27.24
2022-08-20T08:19:38.874Z,27.47
2022-08-20T08:22:44.010Z,27.27
2022-08-20T08:25:46.848Z,26.94
2022-08-20T08:28:49.525Z,26.99
2022-08-20T08:31:55.667Z,26.80
2022-08-20T08:34:58.746Z,27.12
2022-08-20T08:38:02.848Z,27.45
2022-08-20T08:41:12.485Z,27.53
2022-08-20T08:44:21.820Z,26.55
2022-08-20T08:47:29.251Z,26.96
2022-08-20T08:50:54.140Z,27.21
2022-08-20T08:54:02.054Z,26.85
2022-08-20T08:57:08.569Z,26.30
2022-08-20T09:00:15.500Z,26.25
2022-08-20T09:03:24.491Z,26.51
2022-08-20T09:06:28.213Z,26.52
2022-08-20T09:09:34.623Z,26.00
2022-08-20T09:12:37.333Z,25.58
2022-08-20T09:15:39.911Z,26.02
2022-08-20T09:18:43.102Z,26.29
2022-08-20T09:21:45.806Z,26.37
2022-08-20T09:24:51.020Z,25.96
2022-08-20T09:27:53.824Z,26.04
2022-08-20T09:30:57.393Z,26.61
2022-08-20T09:34:01.066Z,27.09
2022-08-20T09:37:03.753Z,26.82
2022-08-20T09:40:09.887Z,25.94
2022-08-20T09:43:12.780Z,26.77
2022-08-20T09:46:15.195Z,26.67
2022-08-20T09:49:17.916Z,27.08
2022-08-20T09:52:24.706Z,26.99
2022-08-20T09:55:33.896Z,27.22
2022-08-20T09:58:39.983Z,27.01
2022-08-20T10:01:42.902Z,27.32
2022-08-20T10:04:45.829Z,27.57
2022-08-20T10:07:48.661Z,26.76
2022-08-20T10:10:52.871Z,26.25
2022-08-20T10:13:55.522Z,26.20
2022-08-20T10:16:59.833Z,25.48
2022-08-20T10:20:03.027Z,27.00
2022-08-20T10:23:05.596Z,27.74
2022-08-20T10:26:09.668Z,28.01
2022-08-20T10:29:12.149Z,28.26
2022-08-20T10:32:16.141Z,27.52
2022-08-20T10:35:18.789Z,25.90
2022-08-20T10:38:21.745Z,26.28
2022-08-20T10:41:25.535Z,25.68
2022-08-20T10:44:28.204Z,25.32
2022-08-20T10:47:31.512Z,25.77
2022-08-20T10:50:34.205Z,25.66
2022-08-20T10:53:36.964Z,25.33
2022-08-20T10:56:41.108Z,25.12
2022-08-20T10:59:44.138Z,24.55
2022-08-20T11:02:46.802Z,24.49
2022-08-20T11:05:49.359Z,24.73
2022-08-20T11:08:51.970Z,24.28
2022-08-20T11:11:56.802Z,24.94
2022-08-20T11:14:59.370Z,25.05
2022-08-20T11:18:01.868Z,25.75
2022-08-20T11:21:04.432Z,26.92
2022-08-20T11:24:07.053Z,26.70
2022-08-20T11:27:10.997Z,26.79
2022-08-20T11:30:14.977Z,25.57
2022-08-20T11:33:17.530Z,25.47
2022-08-20T11:36:26.423Z,25.68
2022-08-20T11:39:28.916Z,25.32
2022-08-20T11:42:32.726Z,26.12
2022-08-20T11:45:37.613Z,26.48
2022-08-20T11:48:40.430Z,26.07
2022-08-20T11:51:49.415Z,25.48
2022-08-20T11:54:55.087Z,25.96
2022-08-20T11:57:59.957Z,26.29
2022-08-20T12:01:03.221Z,25.96
2022-08-20T12:04:06.200Z,26.12
2022-08-20T12:07:09.243Z,26.20
2022-08-20T12:10:11.983Z,26.22
2022-08-20T12:13:15.980Z,26.63
2022-08-20T12:16:18.548Z,26.44
2022-08-20T12:19:21.109Z,26.51
2022-08-20T12:22:25.333Z,26.55
2022-08-20T12:25:28.237Z,26.30
2022-08-20T12:28:32.219Z,27.03
2022-08-20T12:31:34.801Z,27.44
2022-08-20T12:34:37.550Z,27.58
2022-08-20T12:37:40.233Z,28.55
2022-08-20T12:40:42.800Z,28.51
2022-08-20T12:43:46.752Z,29.07
2022-08-20T12:46:49.353Z,28.40
2022-08-20T12:49:52.595Z,27.94
2022-08-20T12:52:55.176Z,27.37
2022-08-20T12:55:57.813Z,28.29
2022-08-20T12:59:01.661Z,28.55
2022-08-20T13:02:14.227Z,27.98
2022-08-20T13:05:18.433Z,26.62
2022-08-20T13:08:20.976Z,25.38
2022-08-20T13:11:23.435Z,25.54
2022-08-20T13:14:27.392Z,25.95
2022-08-20T13:17:39.681Z,26.00
2022-08-20T13:20:42.503Z,26.31
2022-08-20T13:23:45.074Z,26.29
2022-08-20T13:26:47.509Z,26.61
2022-08-20T13:29:56.436Z,27.00
2022-08-20T13:33:01.110Z,28.07
2022-08-20T13:36:03.728Z,30.44
2022-08-20T13:39:06.844Z,32.55
2022-08-20T13:42:09.406Z,37.89
2022-08-20T13:45:13.185Z,37.95
2022-08-20T13:48:15.661Z,38.92
2022-08-20T13:51:19.137Z,37.37
2022-08-20T13:54:26.093Z,41.14
2022-08-20T13:57:32.762Z,44.18
2022-08-20T14:00:36.819Z,43.24
2022-08-20T14:03:39.528Z,44.71
2022-08-20T14:06:45.304Z,45.37
2022-08-20T14:09:48.367Z,38.60
2022-08-20T14:12:50.954Z,34.17
2022-08-20T14:15:55.223Z,32.74
2022-08-20T14:18:57.793Z,35.63
2022-08-20T14:22:00.351Z,34.75
2022-08-20T14:25:03.844Z,29.95
2022-08-20T14:28:12.568Z,29.35
2022-08-20T14:31:16.384Z,34.62
2022-08-20T14:34:19.053Z,43.98
2022-08-20T14:37:22.999Z,47.14
2022-08-20T14:40:26.302Z,43.12
2022-08-20T14:43:28.965Z,35.18
2022-08-20T14:46:32.785Z,32.43
2022-08-20T14:49:35.317Z,39.50
2022-08-20T14:52:38.020Z,43.84
2022-08-20T14:55:40.551Z,42.77
2022-08-20T14:58:43.069Z,37.36
2022-08-20T15:01:47.075Z,42.86
2022-08-20T15:04:54.193Z,41.30
2022-08-20T15:07:58.273Z,45.21
2022-08-20T15:11:01.941Z,37.88
2022-08-20T15:14:04.415Z,35.70
2022-08-20T15:17:08.211Z,30.55
2022-08-20T15:20:20.766Z,36.79
2022-08-20T15:23:23.963Z,41.73
2022-08-20T15:26:26.591Z,40.16
2022-08-20T15:29:29.262Z,38.42
2022-08-20T15:32:33.114Z,33.88
2022-08-20T15:35:35.545Z,36.70
2022-08-20T15:38:38.055Z,42.21
2022-08-20T15:41:40.673Z,38.21
2022-08-20T15:45:27.566Z,31.94
2022-08-20T15:48:34.098Z,33.47
2022-08-20T15:51:41.925Z,39.68
2022-08-20T15:54:45.255Z,42.69
2022-08-20T15:57:54.945Z,46.04
2022-08-20T16:01:24.789Z,46.41
2022-08-20T16:05:03.187Z,45.83
2022-08-20T16:08:17.982Z,44.27
2022-08-20T16:11:25.162Z,43.80
2022-08-20T16:14:30.105Z,36.06
2022-08-20T16:17:41.562Z,31.53
2022-08-20T16:20:48.301Z,30.42
2022-08-20T16:23:51.000Z,34.90
2022-08-20T16:27:10.409Z,42.05
2022-08-20T16:30:20.886Z,45.34
2022-08-20T16:33:28.818Z,47.30
2022-08-20T16:36:37.449Z,47.87
2022-08-20T16:39:44.912Z,41.53
2022-08-20T16:42:52.209Z,38.39
2022-08-20T16:45:56.925Z,41.11
2022-08-20T16:49:05.626Z,43.60
2022-08-20T16:52:08.703Z,44.49
2022-08-20T16:55:11.930Z,43.88
2022-08-20T16:58:14.723Z,38.47
2022-08-20T17:01:17.415Z,35.04
2022-08-20T17:04:23.396Z,32.58
2022-08-20T17:07:29.830Z,30.60
2022-08-20T17:10:39.700Z,29.34
2022-08-20T17:13:44.686Z,28.52
2022-08-20T17:16:49.714Z,27.69
2022-08-20T17:19:57.328Z,27.20
2022-08-20T17:23:11.228Z,26.79
2022-08-20T17:26:26.307Z,26.38
2022-08-20T17:29:31.495Z,26.15
2022-08-20T17:32:34.389Z,25.93
2022-08-20T17:35:42.977Z,25.78
2022-08-20T17:38:49.270Z,25.58
2022-08-20T17:41:56.034Z,25.71
2022-08-20T17:45:04.610Z,25.75
2022-08-20T17:48:13.273Z,25.62
2022-08-20T17:51:19.699Z,25.55
2022-08-20T17:54:24.364Z,25.44
2022-08-20T17:57:31.698Z,25.31
2022-08-20T18:00:34.770Z,25.17
2022-08-20T18:03:37.696Z,25.00
2022-08-20T18:06:45.804Z,24.87
2022-08-20T18:09:53.860Z,24.71
2022-08-20T18:13:01.135Z,24.66
2022-08-20T18:16:05.091Z,24.52
2022-08-20T18:19:15.294Z,24.37
2022-08-20T18:22:21.780Z,24.35
2022-08-20T18:25:33.622Z,24.23
2022-08-20T18:36:50.775Z,23.60
2022-08-20T18:40:46.136Z,23.45
2022-08-20T18:48:00.977Z,23.22
2022-08-20T18:59:38.991Z,22.68
2022-08-20T19:02:56.017Z,22.60
2022-08-20T19:06:08.800Z,22.57
2022-08-20T19:09:15.741Z,22.56
2022-08-20T19:12:33.829Z,22.42
2022-08-20T19:15:41.190Z,22.40
2022-08-20T19:18:47.865Z,22.32
2022-08-20T19:21:50.759Z,22.26
2022-08-20T19:24:56.760Z,22.21
2022-08-20T19:28:01.608Z,22.27
2022-08-20T19:31:17.122Z,22.29
2022-08-20T19:34:23.989Z,22.27
2022-08-20T19:37:39.662Z,22.15
2022-08-20T19:40:47.152Z,22.21
2022-08-20T19:43:55.263Z,22.19
2022-08-20T19:47:00.220Z,21.99
2022-08-20T19:50:16.908Z,21.88
2022-08-20T19:53:30.373Z,21.73
2022-08-20T19:56:40.748Z,21.69
2022-08-20T19:59:52.842Z,21.76
2022-08-20T20:02:57.755Z,21.69
2022-08-20T20:06:02.400Z,21.65
2022-08-20T20:09:08.144Z,21.74
2022-08-20T20:12:19.265Z,21.54
2022-08-20T20:15:26.040Z,21.62
2022-08-20T20:18:32.529Z,21.67
2022-08-20T20:21:39.133Z,21.60
2022-08-20T20:24:44.965Z,21.57
2022-08-20T20:27:49.853Z,21.57
2022-08-20T20:30:52.749Z,21.50
2022-08-20T20:33:59.246Z,21.48
2022-08-20T20:37:04.954Z,21.46
2022-08-20T20:40:19.082Z,21.37
2022-08-20T20:43:28.481Z,21.41
2022-08-20T20:46:33.074Z,21.35
2022-08-20T20:49:49.297Z,21.15
2022-08-20T20:52:55.495Z,21.26
2022-08-20T20:56:00.206Z,21.26
2022-08-20T20:59:06.788Z,21.23
2022-08-20T21:02:10.211Z,21.14
2022-08-20T21:05:16.643Z,21.22
2022-08-20T21:08:19.697Z,21.09
2022-08-20T21:11:22.669Z,21.01
2022-08-20T21:14:25.329Z,20.93
2022-08-20T21:17:28.060Z,20.74
2022-08-20T21:20:32.368Z,20.79
2022-08-20T21:23:40.270Z,20.65
2022-08-20T21:26:45.030Z,20.54
2022-08-20T21:29:47.731Z,20.38
2022-08-20T21:32:50.782Z,20.29
2022-08-20T21:35:54.905Z,20.16
2022-08-20T21:38:57.813Z,20.16
2022-08-20T21:42:02.979Z,19.97
2022-08-20T21:45:08.211Z,19.77
2022-08-20T21:48:11.476Z,19.52
2022-08-20T21:51:15.405Z,19.47
2022-08-20T21:54:18.501Z,19.28
2022-08-20T21:57:22.640Z,19.26
2022-08-20T22:00:52.357Z,19.20
2022-08-20T22:03:55.363Z,19.14
2022-08-20T22:06:59.522Z,19.02
2022-08-20T22:10:04.284Z,18.99
2022-08-20T22:13:07.348Z,18.88
2022-08-20T22:16:10.881Z,18.66
2022-08-20T22:19:16.234Z,18.69
2022-08-20T22:22:21.709Z,18.59
2022-08-20T22:25:24.410Z,18.85
2022-08-20T22:28:27.282Z,19.21
2022-08-20T22:31:31.172Z,19.53
2022-08-20T22:34:35.624Z,19.72
2022-08-20T22:37:39.757Z,19.64
2022-08-20T22:40:42.687Z,19.22
2022-08-20T22:43:55.699Z,18.80
2022-08-20T22:47:02.827Z,18.55
2022-08-20T22:50:06.597Z,18.37
2022-08-20T22:53:11.605Z,18.15
2022-08-20T22:56:21.902Z,18.02
2022-08-20T22:59:25.840Z,18.00
2022-08-20T23:02:28.609Z,17.90
2022-08-20T23:05:32.953Z,17.80
2022-08-20T23:08:38.086Z,17.80
2022-08-20T23:11:40.823Z,17.77
2022-08-20T23:14:43.491Z,17.65
2022-08-20T23:17:46.396Z,17.60
2022-08-20T23:20:53.394Z,17.64
2022-08-20T23:23:57.416Z,17.60
2022-08-20T23:27:00.313Z,17.52
2022-08-20T23:30:02.940Z,17.50
2022-08-20T23:33:05.763Z,17.47
2022-08-20T23:36:10.353Z,17.39
2022-08-20T23:39:14.406Z,17.35
2022-08-20T23:42:17.700Z,17.34
2022-08-20T23:45:20.448Z,17.18
2022-08-20T23:48:23.352Z,17.10
2022-08-20T23:51:26.176Z,16.99
2022-08-20T23:54:33.805Z,16.96
2022-08-20T23:57:37.647Z,16.89
